createdAt,value
2022-12-08T00:01:32.978Z,101460.31
2022-12-08T00:04:01.745Z,101456.50
2022-12-08T00:06:52.538Z,101470.72
2022-12-08T00:09:23.484Z,101454.19
2022-12-08T00:11:55.619Z,101467.44
2022-12-08T00:14:25.410Z,101465.38
2022-12-08T00:16:53.172Z,101456.50
2022-12-08T00:19:21.406Z,101460.25
2022-12-08T00:21:48.664Z,101442.69
2022-12-08T00:24:15.895Z,101438.22
2022-12-08T00:26:43.280Z,101442.53
2022-12-08T00:29:15.832Z,101440.56
2022-12-08T00:31:44.719Z,101443.94
2022-12-08T00:34:13.191Z,101454.97
2022-12-08T00:36:40.626Z,101459.34
2022-12-08T00:39:08.329Z,101446.00
2022-12-08T00:41:53.780Z,101448.22
2022-12-08T00:44:20.897Z,101460.94
2022-12-08T00:46:49.171Z,101452.66
2022-12-08T00:49:17.054Z,101445.38
2022-12-08T00:51:44.504Z,101451.44
2022-12-08T00:54:12.051Z,101438.03
2022-12-08T00:56:39.538Z,101435.34
2022-12-08T00:59:08.386Z,101442.38
2022-12-08T01:01:36.412Z,101436.19
2022-12-08T01:04:08.654Z,101434.94
2022-12-08T01:06:36.455Z,101439.03
2022-12-08T01:09:05.485Z,101448.84
2022-12-08T01:11:32.978Z,101424.41
2022-12-08T01:14:00.450Z,101438.59
2022-12-08T01:16:30.845Z,101437.97
2022-12-08T01:18:59.151Z,101445.28
2022-12-08T01:21:27.592Z,101441.00
2022-12-08T01:23:55.844Z,101438.56
2022-12-08T01:26:22.951Z,101441.00
2022-12-08T01:28:50.818Z,101450.63
2022-12-08T01:31:20.346Z,101443.47
2022-12-08T01:33:48.456Z,101444.06
2022-12-08T01:36:27.709Z,101436.41
2022-12-08T01:38:57.811Z,101442.53
2022-12-08T01:41:27.859Z,101450.34
2022-12-08T01:44:24.225Z,101444.53
2022-12-08T01:46:53.730Z,101437.97
2022-12-08T01:49:34.647Z,101446.38
2022-12-08T01:52:15.098Z,101450.06
2022-12-08T01:54:56.864Z,101444.06
2022-12-08T01:57:35.151Z,101446.25
2022-12-08T02:00:14.235Z,101439.47
2022-12-08T02:03:03.394Z,101452.28
2022-12-08T02:05:34.407Z,101462.47
2022-12-08T02:08:06.965Z,101446.69
2022-12-08T02:10:37.511Z,101442.59
2022-12-08T02:13:07.049Z,101455.72
2022-12-08T02:15:40.364Z,101468.88
2022-12-08T02:18:25.876Z,101470.66
2022-12-08T02:21:11.579Z,101465.53
2022-12-08T02:24:26.051Z,101455.88
2022-12-08T02:27:07.931Z,101467.50
2022-12-08T02:30:07.969Z,101467.75
2022-12-08T02:33:12.760Z,101479.06
2022-12-08T02:35:45.995Z,101468.94
2022-12-08T02:38:29.221Z,101447.47
2022-12-08T02:41:32.538Z,101463.06
2022-12-08T02:44:06.637Z,101472.94
2022-12-08T02:46:40.106Z,101446.41
2022-12-08T02:49:07.983Z,101469.28
2022-12-08T02:51:35.134Z,101459.78
2022-12-08T02:54:03.699Z,101448.84
2022-12-08T02:56:42.964Z,101470.59
2022-12-08T02:59:37.704Z,101470.63
2022-12-08T03:02:28.097Z,101472.19
2022-12-08T03:05:08.746Z,101469.97
2022-12-08T03:07:44.252Z,101463.78
2022-12-08T03:10:20.953Z,101466.59
2022-12-08T03:12:59.398Z,101480.78
2022-12-08T03:15:27.797Z,101455.97
2022-12-08T03:17:58.425Z,101474.19
2022-12-08T03:20:28.136Z,101473.59
2022-12-08T03:22:59.176Z,101472.50
2022-12-08T03:25:32.225Z,101461.31
2022-12-08T03:28:00.436Z,101464.69
2022-12-08T03:30:32.417Z,101448.56
2022-12-08T03:33:07.251Z,101463.66
2022-12-08T03:35:38.027Z,101449.78
2022-12-08T03:38:14.452Z,101444.63
2022-12-08T03:40:42.429Z,101451.69
2022-12-08T03:43:10.035Z,101450.41
2022-12-08T03:45:37.176Z,101468.22
2022-12-08T03:48:04.334Z,101446.03
2022-12-08T03:50:31.401Z,101461.19
2022-12-08T03:52:58.467Z,101457.38
2022-12-08T03:55:25.650Z,101449.97
2022-12-08T03:57:52.688Z,101467.56
2022-12-08T04:00:20.070Z,101465.81
2022-12-08T04:02:47.493Z,101475.69
2022-12-08T04:05:14.710Z,101466.44
2022-12-08T04:07:41.761Z,101485.03
2022-12-08T04:10:09.439Z,101483.78
2022-12-08T04:12:36.883Z,101473.63
2022-12-08T04:15:04.167Z,101453.31
2022-12-08T04:17:31.581Z,101485.38
2022-12-08T04:19:58.837Z,101477.44
2022-12-08T04:22:25.888Z,101479.91
2022-12-08T04:24:53.240Z,101465.41
2022-12-08T04:27:20.582Z,101466.88
2022-12-08T04:29:47.628Z,101480.09
2022-12-08T04:32:14.835Z,101470.78
2022-12-08T04:34:41.905Z,101477.78
2022-12-08T04:37:09.281Z,101478.56
2022-12-08T04:39:36.600Z,101479.22
2022-12-08T04:42:03.803Z,101490.06
2022-12-08T04:44:30.961Z,101452.09
2022-12-08T04:46:58.099Z,101476.22
2022-12-08T04:49:25.238Z,101462.09
2022-12-08T04:51:52.367Z,101464.28
2022-12-08T04:54:19.413Z,101459.84
2022-12-08T04:56:46.691Z,101466.00
2022-12-08T04:59:13.829Z,101452.50
2022-12-08T05:01:41.321Z,101470.88
2022-12-08T05:04:08.467Z,101470.41
2022-12-08T05:06:35.592Z,101474.81
2022-12-08T05:09:02.662Z,101471.81
2022-12-08T05:11:30.116Z,101471.88
2022-12-08T05:13:57.943Z,101454.50
2022-12-08T05:16:25.208Z,101468.66
2022-12-08T05:18:52.366Z,101471.19
2022-12-08T05:21:20.642Z,101466.13
2022-12-08T05:23:47.776Z,101472.44
2022-12-08T05:26:15.504Z,101454.75
2022-12-08T05:28:43.629Z,101442.13
2022-12-08T05:31:13.229Z,101436.97
2022-12-08T05:33:40.666Z,101450.06
2022-12-08T05:36:08.743Z,101463.75
2022-12-08T05:38:36.547Z,101452.09
2022-12-08T05:41:05.778Z,101455.25
2022-12-08T05:43:32.939Z,101462.44
2022-12-08T05:46:01.006Z,101463.16
2022-12-08T05:48:28.362Z,101474.94
2022-12-08T05:50:55.418Z,101476.00
2022-12-08T05:53:22.542Z,101465.19
2022-12-08T05:55:49.788Z,101475.41
2022-12-08T05:58:20.540Z,101479.88
2022-12-08T06:00:48.849Z,101466.53
2022-12-08T06:03:20.457Z,101477.47
2022-12-08T06:05:48.428Z,101474.66
2022-12-08T06:08:16.124Z,101485.81
2022-12-08T06:10:45.009Z,101488.47
2022-12-08T06:13:12.624Z,101498.69
2022-12-08T06:15:40.575Z,101492.97
2022-12-08T06:18:08.884Z,101500.56
2022-12-08T06:20:36.005Z,101501.22
2022-12-08T06:23:04.418Z,101508.03
2022-12-08T06:25:31.580Z,101513.19
2022-12-08T06:27:58.884Z,101508.25
2022-12-08T06:30:27.822Z,101501.38
2022-12-08T06:32:55.120Z,101498.16
2022-12-08T06:35:22.221Z,101507.25
2022-12-08T06:37:51.626Z,101503.78
2022-12-08T06:40:18.927Z,101512.69
2022-12-08T06:42:46.986Z,101503.97
2022-12-08T06:45:18.239Z,101520.63
2022-12-08T06:47:45.631Z,101521.81
2022-12-08T06:50:14.609Z,101522.16
2022-12-08T06:52:55.777Z,101502.13
2022-12-08T06:55:51.230Z,101525.25
2022-12-08T06:58:15.532Z,101543.81
2022-12-08T07:00:43.607Z,101523.31
2022-12-08T07:03:12.648Z,101532.78
2022-12-08T07:05:40.016Z,101547.81
2022-12-08T07:08:08.979Z,101535.84
2022-12-08T07:10:36.677Z,101546.44
2022-12-08T07:13:03.785Z,101532.47
2022-12-08T07:15:31.376Z,101543.19
2022-12-08T07:18:00.359Z,101542.13
2022-12-08T07:20:28.287Z,101528.53
2022-12-08T07:22:58.740Z,101536.22
2022-12-08T07:25:26.042Z,101535.41
2022-12-08T07:27:54.009Z,101518.94
2022-12-08T07:30:21.405Z,101523.28
2022-12-08T07:32:48.591Z,101531.22
2022-12-08T07:35:15.741Z,101530.81
2022-12-08T07:37:43.023Z,101515.84
2022-12-08T07:40:10.813Z,101535.69
2022-12-08T07:42:38.407Z,101537.59
2022-12-08T07:45:05.993Z,101514.97
2022-12-08T07:47:33.299Z,101531.22
2022-12-08T07:50:00.439Z,101532.56
2022-12-08T07:52:27.543Z,101516.91
2022-12-08T07:54:54.630Z,101520.03
2022-12-08T07:57:21.886Z,101520.63
2022-12-08T07:59:49.032Z,101509.81
2022-12-08T08:02:24.943Z,101515.47
2022-12-08T08:04:53.279Z,101504.63
2022-12-08T08:07:20.924Z,101501.25
2022-12-08T08:09:48.184Z,101504.25
2022-12-08T08:12:30.921Z,101492.84
2022-12-08T08:15:01.144Z,101500.16
2022-12-08T08:17:29.925Z,101498.25
2022-12-08T08:19:57.667Z,101499.34
2022-12-08T08:22:31.022Z,101487.19
2022-12-08T08:24:58.034Z,101501.72
2022-12-08T08:27:27.014Z,101498.38
2022-12-08T08:29:54.278Z,101486.47
2022-12-08T08:32:21.734Z,101484.28
2022-12-08T08:34:51.611Z,101490.22
2022-12-08T08:37:19.006Z,101489.13
2022-12-08T08:39:46.247Z,101484.44
2022-12-08T08:42:13.491Z,101487.44
2022-12-08T08:44:40.682Z,101484.19
2022-12-08T08:47:09.250Z,101479.13
2022-12-08T08:49:36.962Z,101468.19
2022-12-08T08:52:05.603Z,101469.75
2022-12-08T08:54:33.846Z,101484.56
2022-12-08T08:57:01.125Z,101457.84
2022-12-08T08:59:28.838Z,101455.25
2022-12-08T09:01:56.528Z,101444.75
2022-12-08T09:04:23.897Z,101449.88
2022-12-08T09:06:51.123Z,101457.88
2022-12-08T09:09:18.629Z,101461.91
2022-12-08T09:11:45.815Z,101460.19
2022-12-08T09:14:15.440Z,101463.78
2022-12-08T09:16:43.281Z,101456.19
2022-12-08T09:19:10.747Z,101444.06
2022-12-08T09:21:37.833Z,101437.63
2022-12-08T09:24:05.209Z,101441.25
2022-12-08T09:26:32.303Z,101450.00
2022-12-08T09:29:00.662Z,101443.91
2022-12-08T09:31:27.812Z,101446.59
2022-12-08T09:33:55.038Z,101447.31
2022-12-08T09:36:22.209Z,101421.75
2022-12-08T09:38:50.513Z,101436.44
2022-12-08T09:41:36.548Z,101442.06
2022-12-08T09:44:13.614Z,101443.41
2022-12-08T09:46:42.130Z,101429.41
2022-12-08T09:49:17.883Z,101419.50
2022-12-08T09:51:48.814Z,101429.25
2022-12-08T09:54:21.656Z,101435.38
2022-12-08T09:56:52.218Z,101431.69
2022-12-08T09:59:30.573Z,101427.66
2022-12-08T10:01:57.917Z,101414.03
2022-12-08T10:04:35.068Z,101418.41
2022-12-08T10:07:25.723Z,101422.22
2022-12-08T10:10:15.591Z,101413.03
2022-12-08T10:12:59.749Z,101414.00
2022-12-08T10:15:33.428Z,101408.44
2022-12-08T10:18:03.740Z,101397.13
2022-12-08T10:20:40.907Z,101401.28
2022-12-08T10:23:14.342Z,101410.06
2022-12-08T10:25:46.412Z,101410.00
2022-12-08T10:28:14.274Z,101406.88
2022-12-08T10:30:42.776Z,101407.00
2022-12-08T10:33:21.618Z,101394.47
2022-12-08T10:35:56.681Z,101410.28
2022-12-08T10:38:31.255Z,101418.28
2022-12-08T10:41:01.565Z,101419.31
2022-12-08T10:43:28.959Z,101399.38
2022-12-08T10:46:28.023Z,101403.28
2022-12-08T10:49:17.212Z,101408.09
2022-12-08T10:51:44.484Z,101405.59
2022-12-08T10:54:35.879Z,101407.97
2022-12-08T10:57:03.484Z,101388.94
2022-12-08T10:59:34.245Z,101407.88
2022-12-08T11:02:01.764Z,101395.75
2022-12-08T11:04:38.404Z,101387.53
2022-12-08T11:07:09.049Z,101400.16
2022-12-08T11:09:49.004Z,101407.13
2022-12-08T11:12:18.545Z,101401.50
2022-12-08T11:14:50.859Z,101404.97
2022-12-08T11:17:27.514Z,101389.25
2022-12-08T11:20:15.044Z,101397.56
2022-12-08T11:22:51.131Z,101406.16
2022-12-08T11:25:24.969Z,101393.66
2022-12-08T11:27:58.932Z,101400.66
2022-12-08T11:30:37.948Z,101400.91
2022-12-08T11:33:17.323Z,101411.66
2022-12-08T11:35:51.726Z,101401.09
2022-12-08T11:38:24.661Z,101403.94
2022-12-08T11:41:15.839Z,101401.09
2022-12-08T11:44:17.262Z,101398.63
2022-12-08T11:46:52.764Z,101399.81
2022-12-08T11:49:20.821Z,101392.38
2022-12-08T11:52:05.322Z,101399.91
2022-12-08T11:55:05.591Z,101402.34
2022-12-08T11:57:33.053Z,101402.00
2022-12-08T12:00:02.327Z,101393.56
2022-12-08T12:02:46.363Z,101398.78
2022-12-08T12:06:30.801Z,101394.72
2022-12-08T12:08:51.107Z,101405.94
2022-12-08T12:11:49.058Z,101420.41
2022-12-08T12:14:39.897Z,101417.22
2022-12-08T12:17:22.372Z,101415.56
2022-12-08T12:19:50.309Z,101420.53
2022-12-08T12:22:21.685Z,101420.88
2022-12-08T12:24:52.688Z,101415.38
2022-12-08T12:27:45.206Z,101416.66
2022-12-08T12:30:24.566Z,101427.44
2022-12-08T12:33:00.040Z,101415.00
2022-12-08T12:35:38.065Z,101423.53
2022-12-08T12:38:29.242Z,101400.81
2022-12-08T12:41:05.562Z,101415.44
2022-12-08T12:43:38.430Z,101411.56
2022-12-08T12:46:25.745Z,101418.91
2022-12-08T12:48:53.921Z,101420.16
2022-12-08T12:51:40.224Z,101435.59
2022-12-08T12:54:43.057Z,101417.13
2022-12-08T12:57:13.069Z,101425.63
2022-12-08T12:59:54.643Z,101426.50
2022-12-08T13:02:40.279Z,101425.59
2022-12-08T13:05:13.569Z,101432.31
2022-12-08T13:07:53.973Z,101431.28
2022-12-08T13:10:26.521Z,101417.50
2022-12-08T13:13:10.593Z,101410.34
2022-12-08T13:15:48.984Z,101417.47
2022-12-08T13:18:19.000Z,101427.00
2022-12-08T13:20:52.629Z,101431.38
2022-12-08T13:23:46.369Z,101436.44
2022-12-08T13:26:24.098Z,101448.00
2022-12-08T13:29:01.513Z,101445.78
2022-12-08T13:31:46.803Z,101433.00
2022-12-08T13:34:45.570Z,101425.25
2022-12-08T13:37:13.585Z,101438.69
2022-12-08T13:39:40.764Z,101436.31
2022-12-08T13:42:17.353Z,101448.88
2022-12-08T13:45:39.757Z,101434.97
2022-12-08T13:48:23.277Z,101445.78
2022-12-08T13:53:10.309Z,101439.81
2022-12-08T13:59:34.802Z,101452.28
2022-12-08T14:02:09.580Z,101429.28
2022-12-08T14:05:09.216Z,101431.59
2022-12-08T14:07:24.525Z,101436.75
2022-12-08T14:09:52.924Z,101413.31
2022-12-08T14:12:26.878Z,101437.44
2022-12-08T14:15:04.138Z,101438.19
2022-12-08T14:17:33.177Z,101441.50
2022-12-08T14:20:02.629Z,101438.13
2022-12-08T14:22:36.668Z,101445.38
2022-12-08T14:25:06.323Z,101443.69
2022-12-08T14:27:36.599Z,101442.22
2022-12-08T14:30:06.392Z,101434.03
2022-12-08T14:32:38.364Z,101443.25
2022-12-08T14:35:08.577Z,101438.13
2022-12-08T14:37:43.601Z,101443.56
2022-12-08T14:40:24.881Z,101428.16
2022-12-08T14:43:05.333Z,101436.94
2022-12-08T14:45:34.943Z,101441.47
2022-12-08T14:48:26.068Z,101435.56
2022-12-08T14:51:24.232Z,101446.22
2022-12-08T14:54:07.016Z,101439.25
2022-12-08T14:56:59.364Z,101464.38
2022-12-08T14:59:31.781Z,101462.28
2022-12-08T15:02:24.459Z,101427.28
2022-12-08T15:05:03.527Z,101461.25
2022-12-08T15:07:52.556Z,101447.19
2022-12-08T15:10:29.703Z,101447.34
2022-12-08T15:13:02.745Z,101454.81
2022-12-08T15:15:31.968Z,101459.72
2022-12-08T15:18:03.811Z,101455.06
2022-12-08T15:20:34.986Z,101463.91
2022-12-08T15:23:04.174Z,101459.94
2022-12-08T15:25:31.917Z,101445.69
2022-12-08T15:27:59.310Z,101458.47
2022-12-08T15:30:26.705Z,101444.38
2022-12-08T15:32:56.100Z,101445.34
2022-12-08T15:35:23.532Z,101456.00
2022-12-08T15:37:50.949Z,101464.28
2022-12-08T15:40:20.868Z,101453.84
2022-12-08T15:42:49.093Z,101460.25
2022-12-08T15:45:17.633Z,101459.66
2022-12-08T15:47:45.716Z,101426.59
2022-12-08T15:50:18.444Z,101466.84
2022-12-08T15:52:45.622Z,101467.38
2022-12-08T15:55:18.145Z,101465.03
2022-12-08T16:00:55.673Z,101469.22
2022-12-08T16:04:27.593Z,101477.69
2022-12-08T16:09:12.531Z,101466.53
2022-12-08T16:12:07.899Z,101468.91
2022-12-08T16:17:24.566Z,101432.81
2022-12-08T16:19:52.068Z,101428.56
2022-12-08T16:25:19.455Z,101472.78
2022-12-08T16:30:42.625Z,101481.06
2022-12-08T16:33:12.009Z,101482.88
2022-12-08T16:35:39.944Z,101483.00
2022-12-08T16:38:07.223Z,101471.50
2022-12-08T16:40:54.554Z,101456.59
2022-12-08T16:43:21.715Z,101473.78
2022-12-08T16:45:48.979Z,101458.91
2022-12-08T16:48:16.602Z,101468.66
2022-12-08T16:50:45.892Z,101461.81
2022-12-08T16:53:13.730Z,101464.38
2022-12-08T16:55:41.229Z,101461.69
2022-12-08T16:58:08.481Z,101459.63
2022-12-08T17:00:37.257Z,101464.19
2022-12-08T17:03:05.990Z,101462.97
2022-12-08T17:05:33.153Z,101454.16
2022-12-08T17:08:00.424Z,101446.69
2022-12-08T17:10:31.813Z,101438.28
2022-12-08T17:12:59.036Z,101447.28
2022-12-08T17:15:26.151Z,101441.22
2022-12-08T17:17:54.159Z,101441.22
2022-12-08T17:20:25.239Z,101452.31
2022-12-08T17:22:59.592Z,101444.22
2022-12-08T17:25:27.362Z,101450.22
2022-12-08T17:27:56.469Z,101445.00
2022-12-08T17:30:24.212Z,101436.09
2022-12-08T17:32:52.933Z,101452.75
2022-12-08T17:35:20.150Z,101437.84
2022-12-08T17:37:47.668Z,101451.09
2022-12-08T17:40:14.831Z,101433.91
2022-12-08T17:42:42.475Z,101453.81
2022-12-08T17:45:10.289Z,101439.69
2022-12-08T17:47:37.956Z,101452.13
2022-12-08T17:50:06.583Z,101437.28
2022-12-08T17:52:34.235Z,101431.47
2022-12-08T17:55:01.716Z,101432.56
2022-12-08T17:57:31.931Z,101451.72
2022-12-08T17:59:59.399Z,101459.06
2022-12-08T18:02:26.563Z,101452.75
2022-12-08T18:04:53.820Z,101440.38
2022-12-08T18:07:21.041Z,101416.81
2022-12-08T18:09:48.341Z,101442.56
2022-12-08T18:12:20.694Z,101433.47
2022-12-08T18:14:53.080Z,101451.31
2022-12-08T18:17:20.819Z,101423.66
2022-12-08T18:19:48.029Z,101430.28
2022-12-08T18:22:16.384Z,101441.13
2022-12-08T18:24:44.194Z,101435.31
2022-12-08T18:27:12.197Z,101437.72
2022-12-08T18:29:40.271Z,101429.19
2022-12-08T18:32:08.498Z,101422.38
2022-12-08T18:34:36.322Z,101437.41
2022-12-08T18:37:03.651Z,101435.59
2022-12-08T18:39:33.567Z,101432.34
2022-12-08T18:42:21.733Z,101424.38
2022-12-08T18:44:56.259Z,101429.16
2022-12-08T18:47:23.768Z,101438.97
2022-12-08T18:49:51.008Z,101442.16
2022-12-08T18:52:24.852Z,101407.13
2022-12-08T18:55:06.208Z,101442.81
2022-12-08T18:57:36.514Z,101423.75
2022-12-08T19:00:06.274Z,101440.22
2022-12-08T19:02:34.203Z,101437.97
2022-12-08T19:05:02.122Z,101431.34
2022-12-08T19:07:30.980Z,101442.88
2022-12-08T19:09:59.764Z,101434.13
2022-12-08T19:12:27.678Z,101432.31
2022-12-08T19:14:54.959Z,101436.25
2022-12-08T19:17:22.248Z,101446.84
2022-12-08T19:19:49.499Z,101437.78
2022-12-08T19:22:16.901Z,101433.19
2022-12-08T19:24:44.266Z,101438.69
2022-12-08T19:27:11.402Z,101446.13
2022-12-08T19:29:38.457Z,101437.94
2022-12-08T19:32:06.144Z,101423.03
2022-12-08T19:34:33.374Z,101430.63
2022-12-08T19:37:00.409Z,101425.47
2022-12-08T19:39:46.633Z,101425.38
2022-12-08T19:42:35.330Z,101437.75
2022-12-08T19:45:14.350Z,101424.50
2022-12-08T19:47:42.395Z,101430.78
2022-12-08T19:50:30.954Z,101435.38
2022-12-08T19:52:58.523Z,101440.03
2022-12-08T19:55:26.420Z,101435.25
2022-12-08T19:57:54.509Z,101433.56
2022-12-08T20:00:22.064Z,101417.97
2022-12-08T20:02:49.567Z,101424.31
2022-12-08T20:05:16.906Z,101423.66
2022-12-08T20:07:44.200Z,101421.78
2022-12-08T20:10:34.056Z,101424.16
2022-12-08T20:13:20.717Z,101420.69
2022-12-08T20:15:48.187Z,101417.91
2022-12-08T20:18:15.821Z,101433.34
2022-12-08T20:20:44.909Z,101419.97
2022-12-08T20:23:14.173Z,101417.72
2022-12-08T20:25:43.598Z,101433.31
2022-12-08T20:28:12.068Z,101421.78
2022-12-08T20:30:43.168Z,101425.22
2022-12-08T20:33:13.771Z,101428.78
2022-12-08T20:35:41.175Z,101428.06
2022-12-08T20:38:13.021Z,101429.69
2022-12-08T20:40:44.411Z,101421.34
2022-12-08T20:43:11.789Z,101411.84
2022-12-08T20:45:39.479Z,101426.13
2022-12-08T20:48:06.760Z,101405.38
2022-12-08T20:50:36.172Z,101411.53
2022-12-08T20:53:05.643Z,101409.19
2022-12-08T20:55:32.722Z,101413.47
2022-12-08T20:58:00.835Z,101397.59
2022-12-08T21:00:28.264Z,101396.19
2022-12-08T21:02:57.040Z,101417.38
2022-12-08T21:05:28.729Z,101403.72
2022-12-08T21:07:56.198Z,101398.19
2022-12-08T21:10:23.448Z,101403.47
2022-12-08T21:12:50.952Z,101389.91
2022-12-08T21:15:18.321Z,101416.53
2022-12-08T21:17:45.696Z,101401.56
2022-12-08T21:20:16.416Z,101406.97
2022-12-08T21:22:44.344Z,101417.28
2022-12-08T21:25:11.689Z,101400.59
2022-12-08T21:27:40.023Z,101397.56
2022-12-08T21:30:09.529Z,101401.19
2022-12-08T21:32:40.370Z,101408.47
2022-12-08T21:35:08.390Z,101402.25
2022-12-08T21:37:35.606Z,101407.72
2022-12-08T21:40:03.352Z,101409.19
2022-12-08T21:42:43.884Z,101402.28
2022-12-08T21:45:14.200Z,101408.13
2022-12-08T21:47:41.719Z,101400.53
2022-12-08T21:50:09.950Z,101408.94
2022-12-08T21:52:40.519Z,101411.75
2022-12-08T21:55:08.732Z,101413.69
2022-12-08T21:57:36.193Z,101413.19
2022-12-08T22:00:04.915Z,101403.63
2022-12-08T22:02:33.009Z,101418.78
2022-12-08T22:05:00.260Z,101412.63
2022-12-08T22:07:27.633Z,101409.25
2022-12-08T22:09:55.119Z,101401.00
2022-12-08T22:12:22.342Z,101418.81
2022-12-08T22:14:51.193Z,101404.66
2022-12-08T22:17:18.737Z,101399.88
2022-12-08T22:19:46.145Z,101422.56
2022-12-08T22:22:13.289Z,101418.63
2022-12-08T22:24:40.533Z,101408.03
2022-12-08T22:27:07.841Z,101419.13
2022-12-08T22:29:35.292Z,101423.00
2022-12-08T22:32:02.726Z,101419.66
2022-12-08T22:34:30.179Z,101419.94
2022-12-08T22:36:57.624Z,101409.69
2022-12-08T22:39:24.676Z,101424.66
2022-12-08T22:41:52.614Z,101421.94
2022-12-08T22:44:19.709Z,101431.38
2022-12-08T22:46:47.232Z,101429.34
2022-12-08T22:49:14.573Z,101427.44
2022-12-08T22:51:41.701Z,101422.47
2022-12-08T22:54:11.251Z,101439.78
2022-12-08T22:56:38.672Z,101433.81
2022-12-08T22:59:06.209Z,101421.75
2022-12-08T23:01:34.559Z,101440.88
2022-12-08T23:04:02.449Z,101438.38
2022-12-08T23:06:30.929Z,101426.34
2022-12-08T23:08:59.259Z,101440.06
2022-12-08T23:11:30.922Z,101437.78
2022-12-08T23:14:00.479Z,101434.78
2022-12-08T23:16:28.727Z,101426.03
2022-12-08T23:18:57.014Z,101414.41
2022-12-08T23:21:24.373Z,101411.28
2022-12-08T23:23:51.543Z,101413.41
2022-12-08T23:26:25.217Z,101415.97
2022-12-08T23:28:52.761Z,101416.00
2022-12-08T23:31:20.666Z,101429.13
2022-12-08T23:33:48.016Z,101434.59
2022-12-08T23:36:16.692Z,101428.31
2022-12-08T23:38:44.196Z,101434.97
2022-12-08T23:41:14.291Z,101433.53
2022-12-08T23:43:50.413Z,101427.44
2022-12-08T23:46:20.517Z,101427.75
2022-12-08T23:48:47.987Z,101410.81
2022-12-08T23:51:16.043Z,101421.66
2022-12-08T23:53:44.058Z,101424.03
2022-12-08T23:56:14.520Z,101431.09
2022-12-08T23:58:43.142Z,101429.75
